Time;durP1;ratioP1;P1;durP2;ratioP2;P2;SDS_P1;SDS_P2;PMS_P1;PMS_P2;Temp;Humidity;BMP_temperature;BMP_pressure;BME280_temperature;BME280_humidity;BME280_pressure;Samples;Min_cycle;Max_cycle;Signal;HPM_P1;HPM_P2
2023/07/02 00:01:11;;;;;;;14.17;4.90;;;16.40;1.00;;;;;;5043589;28;20412;-74
2023/07/02 00:03:40;;;;;;;14.60;4.95;;;16.40;1.00;;;;;;5069204;28;20400;-73
2023/07/02 00:06:06;;;;;;;15.63;5.67;;;16.30;99.90;;;;;;5035400;28;20511;-73
2023/07/02 00:08:32;;;;;;;12.68;5.28;;;16.30;99.90;;;;;;5069943;28;20994;-73
2023/07/02 00:10:57;;;;;;;12.47;5.60;;;16.20;99.90;;;;;;5069301;28;20435;-73
2023/07/02 00:13:23;;;;;;;13.00;4.80;;;16.20;99.90;;;;;;5047966;28;21080;-73
2023/07/02 00:15:49;;;;;;;15.80;5.40;;;16.20;1.00;;;;;;5034239;28;20456;-74
2023/07/02 00:18:17;;;;;;;13.82;5.20;;;16.20;1.00;;;;;;5034733;28;20417;-74
2023/07/02 00:20:43;;;;;;;17.00;5.32;;;16.10;1.00;;;;;;5028253;28;20440;-74
2023/07/02 00:23:09;;;;;;;14.25;5.28;;;16.00;1.00;;;;;;5044500;28;20397;-74
2023/07/02 00:25:36;;;;;;;14.63;5.85;;;16.00;1.00;;;;;;5045124;28;20487;-74
2023/07/02 00:28:02;;;;;;;14.60;5.75;;;16.00;64.10;;;;;;5051421;28;20410;-73
2023/07/02 00:30:28;;;;;;;13.63;5.70;;;15.90;41.50;;;;;;5038626;28;20436;-74
2023/07/02 00:32:54;;;;;;;14.88;5.80;;;15.90;99.90;;;;;;5044422;28;20410;-73
2023/07/02 00:35:19;;;;;;;14.73;5.83;;;15.90;99.90;;;;;;5063042;28;20447;-73
2023/07/02 00:37:45;;;;;;;16.70;5.82;;;15.80;99.90;;;;;;5043879;28;20440;-73
2023/07/02 00:40:11;;;;;;;18.23;6.20;;;15.80;99.90;;;;;;5063669;28;20400;-73
2023/07/02 00:42:36;;;;;;;18.58;6.45;;;15.70;99.90;;;;;;5048018;28;20413;-74
2023/07/02 00:45:03;;;;;;;15.65;6.00;;;15.60;1.00;;;;;;5045514;28;20494;-73
2023/07/02 00:47:34;;;;;;;18.23;6.25;;;15.60;1.00;;;;;;5047863;28;20492;-73
2023/07/02 00:50:02;;;;;;;17.00;6.40;;;15.60;1.00;;;;;;5026422;28;20402;-73
2023/07/02 00:52:28;;;;;;;14.75;5.60;;;15.50;1.00;;;;;;5051181;28;20765;-74
2023/07/02 00:54:53;;;;;;;18.33;6.65;;;15.50;1.00;;;;;;5066731;28;20400;-74
2023/07/02 00:57:19;;;;;;;17.15;6.03;;;15.40;4.20;;;;;;5068371;28;20861;-74
2023/07/02 00:59:45;;;;;;;21.03;7.20;;;15.40;51.60;;;;;;5069092;28;20449;-74
2023/07/02 01:02:12;;;;;;;14.95;6.50;;;15.40;71.90;;;;;;5047712;28;20492;-73
2023/07/02 01:04:39;;;;;;;18.75;6.53;;;15.40;99.90;;;;;;5044576;28;20406;-73
2023/07/02 01:07:09;;;;;;;17.67;6.80;;;15.30;99.90;;;;;;5068574;28;20396;-73
2023/07/02 01:09:36;;;;;;;16.08;5.93;;;15.30;99.90;;;;;;5065942;28;20514;-73
2023/07/02 01:12:08;;;;;;;17.38;6.53;;;15.30;99.90;;;;;;5050441;28;20412;-73
2023/07/02 01:14:39;;;;;;;17.48;6.32;;;15.30;99.90;;;;;;5047740;28;20405;-73
2023/07/02 01:17:06;;;;;;;16.80;6.63;;;15.20;99.90;;;;;;5068095;28;20797;-73
2023/07/02 01:19:53;;;;;;;18.98;6.65;;;15.20;99.90;;;;;;5065913;28;20763;-74
2023/07/02 01:22:21;;;;;;;18.05;6.85;;;15.20;99.90;;;;;;5067635;28;20502;-73
2023/07/02 01:24:48;;;;;;;20.77;7.35;;;15.20;99.90;;;;;;5055736;28;20439;-73
2023/07/02 01:27:15;;;;;;;17.98;7.05;;;15.20;99.90;;;;;;5067871;28;20400;-74
2023/07/02 01:29:41;;;;;;;21.88;6.82;;;15.10;99.90;;;;;;5068194;28;20400;-74
2023/07/02 01:32:08;;;;;;;19.38;6.60;;;15.10;99.90;;;;;;5047416;28;20907;-73
2023/07/02 01:34:34;;;;;;;20.10;7.50;;;15.10;99.90;;;;;;5055548;28;20962;-73
2023/07/02 01:37:00;;;;;;;21.10;7.65;;;15.10;99.90;;;;;;5047525;28;21063;-73
2023/07/02 01:39:26;;;;;;;20.63;6.93;;;15.10;99.90;;;;;;5049957;28;20408;-74
2023/07/02 01:41:54;;;;;;;18.70;7.32;;;15.10;99.90;;;;;;5068773;28;20838;-73
2023/07/02 01:44:21;;;;;;;19.77;7.63;;;15.00;99.90;;;;;;5042706;28;20413;-73
2023/07/02 01:46:48;;;;;;;21.55;7.38;;;15.10;99.90;;;;;;5031547;28;20492;-73
2023/07/02 01:49:15;;;;;;;22.85;7.35;;;15.00;99.90;;;;;;5037957;28;21019;-74
2023/07/02 01:51:44;;;;;;;19.80;7.55;;;15.00;99.90;;;;;;5049161;28;20454;-73
2023/07/02 01:54:09;;;;;;;20.63;7.93;;;15.00;99.90;;;;;;5046285;28;20459;-73
2023/07/02 01:56:35;;;;;;;18.60;7.03;;;14.90;99.90;;;;;;5045120;28;20432;-73
2023/07/02 01:59:01;;;;;;;27.27;7.57;;;14.90;99.90;;;;;;5065824;28;20404;-73
2023/07/02 02:01:27;;;;;;;18.75;7.75;;;15.00;99.90;;;;;;5042739;28;20401;-73
2023/07/02 02:03:53;;;;;;;22.38;7.55;;;14.90;1.00;;;;;;5035955;28;20749;-73
2023/07/02 02:06:18;;;;;;;20.63;7.87;;;14.90;1.00;;;;;;5041366;28;20419;-73
2023/07/02 02:08:44;;;;;;;21.92;8.10;;;14.90;1.00;;;;;;5044933;28;20459;-73
2023/07/02 02:11:10;;;;;;;19.73;7.93;;;14.90;1.00;;;;;;5046063;28;20430;-73
2023/07/02 02:13:35;;;;;;;23.10;7.85;;;14.80;1.00;;;;;;5044537;28;20989;-73
2023/07/02 02:16:01;;;;;;;18.97;7.73;;;14.80;1.00;;;;;;5059290;28;20435;-73
2023/07/02 02:18:26;;;;;;;20.97;7.63;;;14.80;1.00;;;;;;5040714;28;20839;-73
2023/07/02 02:20:52;;;;;;;24.92;7.90;;;14.80;1.00;;;;;;5031425;28;20812;-73
2023/07/02 02:23:17;;;;;;;23.37;7.93;;;14.80;1.00;;;;;;5049401;28;20410;-73
2023/07/02 02:25:43;;;;;;;25.23;8.02;;;14.80;1.00;;;;;;5049389;28;20407;-73
2023/07/02 02:28:09;;;;;;;23.17;8.50;;;14.70;1.00;;;;;;5067176;28;20809;-73
2023/07/02 02:30:34;;;;;;;22.48;7.60;;;14.80;1.00;;;;;;5044315;28;20407;-73
2023/07/02 02:33:00;;;;;;;25.90;8.77;;;14.70;1.00;;;;;;5049346;28;20814;-73
2023/07/02 02:35:25;;;;;;;24.63;7.63;;;14.80;1.00;;;;;;5049481;28;20412;-73
2023/07/02 02:37:51;;;;;;;23.23;8.05;;;14.70;9.30;;;;;;5038562;28;20488;-73
2023/07/02 02:40:17;;;;;;;23.20;7.93;;;14.70;23.10;;;;;;5041068;28;20416;-73
2023/07/02 02:42:42;;;;;;;22.92;8.13;;;14.70;34.70;;;;;;5046035;28;20405;-73
2023/07/02 02:45:08;;;;;;;23.80;8.63;;;14.70;52.40;;;;;;5041756;28;20429;-73
2023/07/02 02:47:34;;;;;;;23.70;8.13;;;14.70;57.70;;;;;;5048180;28;20452;-73
2023/07/02 02:50:00;;;;;;;24.58;8.05;;;14.70;65.70;;;;;;5048892;28;20944;-73
2023/07/02 02:52:25;;;;;;;24.07;8.60;;;14.70;74.40;;;;;;5045042;28;20409;-73
2023/07/02 02:54:54;;;;;;;25.67;8.32;;;14.70;77.20;;;;;;5046712;28;20404;-73
2023/07/02 02:57:19;;;;;;;23.35;8.02;;;14.70;84.90;;;;;;5032953;28;20480;-73
2023/07/02 02:59:45;;;;;;;25.03;8.43;;;14.70;90.20;;;;;;5048758;28;20403;-73
2023/07/02 03:02:11;;;;;;;20.97;8.23;;;14.60;95.70;;;;;;5067414;28;20446;-73
2023/07/02 03:04:39;;;;;;;24.80;8.38;;;14.70;94.30;;;;;;5049247;28;20404;-73
2023/07/02 03:07:06;;;;;;;24.17;8.30;;;14.60;99.70;;;;;;5046135;28;20416;-73
2023/07/02 03:09:32;;;;;;;22.80;8.32;;;14.60;99.80;;;;;;5047609;28;20454;-73
2023/07/02 03:11:58;;;;;;;24.20;8.17;;;14.70;99.90;;;;;;5066897;28;20408;-73
2023/07/02 03:14:23;;;;;;;23.63;8.52;;;14.60;99.90;;;;;;5048343;28;20416;-73
2023/07/02 03:16:49;;;;;;;25.43;8.33;;;14.60;99.90;;;;;;5049474;28;20441;-73
2023/07/02 03:19:15;;;;;;;26.00;8.95;;;14.50;99.90;;;;;;5048413;28;20420;-73
2023/07/02 03:21:44;;;;;;;23.13;8.05;;;14.50;99.90;;;;;;5049208;28;20448;-73
2023/07/02 03:24:13;;;;;;;25.85;8.73;;;14.50;99.90;;;;;;5047981;28;20917;-73
2023/07/02 03:26:42;;;;;;;22.65;8.57;;;14.50;99.90;;;;;;5049434;28;20513;-73
2023/07/02 03:29:08;;;;;;;21.20;8.18;;;14.50;99.90;;;;;;5065788;28;20408;-73
2023/07/02 03:31:34;;;;;;;25.52;7.75;;;14.40;99.90;;;;;;5038464;28;20405;-74
2023/07/02 03:34:09;;;;;;;24.70;8.53;;;14.50;99.90;;;;;;5064946;28;20446;-73
2023/07/02 03:36:36;;;;;;;22.67;7.93;;;14.50;99.90;;;;;;5047885;28;20456;-73
2023/07/02 03:39:03;;;;;;;30.05;8.27;;;14.50;99.90;;;;;;5060811;28;20400;-73
2023/07/02 03:41:29;;;;;;;23.25;8.23;;;14.40;99.90;;;;;;5070407;28;20908;-74
2023/07/02 03:43:54;;;;;;;23.93;8.23;;;14.40;99.90;;;;;;5069720;28;20482;-74
2023/07/02 03:46:20;;;;;;;26.58;8.13;;;14.40;99.90;;;;;;5052517;28;21262;-73
2023/07/02 03:48:46;;;;;;;20.33;7.80;;;14.40;99.90;;;;;;5049055;28;20493;-73
2023/07/02 03:51:14;;;;;;;28.10;8.68;;;14.40;99.90;;;;;;5038910;28;20417;-74
2023/07/02 03:53:41;;;;;;;23.58;8.23;;;14.40;99.90;;;;;;5048927;28;21170;-74
2023/07/02 03:56:07;;;;;;;22.90;7.82;;;14.50;99.90;;;;;;5069934;28;20420;-73
2023/07/02 03:58:33;;;;;;;21.13;8.17;;;14.50;99.90;;;;;;5070126;28;20816;-73
2023/07/02 04:00:59;;;;;;;24.30;8.32;;;14.50;99.90;;;;;;5052200;28;20483;-73
2023/07/02 04:03:25;;;;;;;24.70;7.60;;;14.60;99.90;;;;;;5069729;28;20486;-73
2023/07/02 04:05:50;;;;;;;28.45;9.25;;;14.60;99.90;;;;;;5070273;28;20502;-74
2023/07/02 04:08:16;;;;;;;20.43;7.93;;;14.60;99.90;;;;;;5069824;28;20411;-73
2023/07/02 04:10:42;;;;;;;25.05;8.13;;;14.60;99.90;;;;;;5042986;28;20409;-74
2023/07/02 04:13:07;;;;;;;26.43;7.97;;;14.70;99.90;;;;;;5068919;28;20404;-73
2023/07/02 04:15:33;;;;;;;23.88;8.15;;;14.80;99.90;;;;;;5051462;28;20436;-74
2023/07/02 04:17:59;;;;;;;22.63;7.85;;;14.70;99.90;;;;;;5057662;28;20415;-73
2023/07/02 04:20:25;;;;;;;23.37;7.53;;;14.80;99.90;;;;;;5069225;28;20404;-74
2023/07/02 04:22:51;;;;;;;21.00;7.55;;;14.90;99.90;;;;;;5068616;28;20789;-74
2023/07/02 04:25:17;;;;;;;22.92;7.85;;;14.90;99.90;;;;;;5068615;28;20415;-73
2023/07/02 04:27:43;;;;;;;22.90;8.15;;;14.90;99.90;;;;;;5069146;28;20781;-74
2023/07/02 04:30:10;;;;;;;25.15;8.23;;;15.00;99.90;;;;;;5069450;28;20796;-74
2023/07/02 04:32:39;;;;;;;20.38;7.13;;;15.10;99.90;;;;;;5069180;28;20407;-74
2023/07/02 04:35:05;;;;;;;20.98;7.35;;;15.10;99.90;;;;;;5069797;28;20411;-73
2023/07/02 04:37:31;;;;;;;21.90;7.80;;;15.20;99.90;;;;;;5047226;28;20501;-74
2023/07/02 04:39:56;;;;;;;20.35;7.30;;;15.20;99.90;;;;;;5060390;28;20943;-73
2023/07/02 04:42:27;;;;;;;20.67;7.50;;;15.20;99.90;;;;;;5069009;28;20415;-73
2023/07/02 04:44:53;;;;;;;20.23;7.55;;;15.30;99.90;;;;;;5047695;28;20419;-74
2023/07/02 04:47:19;;;;;;;21.15;7.65;;;15.30;99.90;;;;;;5067484;28;20431;-73
2023/07/02 04:49:45;;;;;;;20.23;7.25;;;15.40;99.90;;;;;;5047634;28;20470;-73
2023/07/02 04:52:11;;;;;;;20.98;7.10;;;15.40;99.90;;;;;;5046759;28;20811;-74
2023/07/02 04:54:36;;;;;;;21.70;7.63;;;15.40;94.90;;;;;;5061254;28;20408;-74
2023/07/02 04:57:02;;;;;;;18.73;7.37;;;15.40;67.80;;;;;;5050778;28;20504;-73
2023/07/02 04:59:28;;;;;;;21.70;7.53;;;15.30;49.70;;;;;;5047285;28;20463;-74
2023/07/02 05:01:54;;;;;;;18.73;6.80;;;15.40;50.50;;;;;;5049985;28;20905;-73
2023/07/02 05:04:19;;;;;;;19.97;7.57;;;15.40;54.50;;;;;;5068974;28;20400;-73
2023/07/02 05:06:45;;;;;;;18.13;7.10;;;15.40;27.60;;;;;;5050573;28;20404;-73
2023/07/02 05:09:10;;;;;;;20.70;7.33;;;15.40;21.30;;;;;;5050959;28;20494;-74
2023/07/02 05:11:36;;;;;;;27.10;7.55;;;15.50;4.20;;;;;;5059492;28;20447;-74
2023/07/02 05:14:02;;;;;;;23.57;7.07;;;15.50;1.00;;;;;;5047214;28;20413;-74
2023/07/02 05:16:28;;;;;;;17.83;7.20;;;15.50;1.00;;;;;;5044075;28;20441;-73
2023/07/02 05:18:53;;;;;;;19.58;7.60;;;15.50;1.00;;;;;;5024421;28;20413;-74
2023/07/02 05:21:19;;;;;;;21.80;7.05;;;15.60;1.00;;;;;;5064810;28;20434;-73
2023/07/02 05:23:45;;;;;;;18.75;6.78;;;15.60;1.00;;;;;;5068272;28;20959;-74
2023/07/02 05:26:11;;;;;;;18.97;6.57;;;15.70;1.00;;;;;;5067619;28;20403;-74
2023/07/02 05:28:36;;;;;;;18.63;6.07;;;15.70;1.00;;;;;;5068244;28;20403;-74
2023/07/02 05:31:02;;;;;;;17.20;6.33;;;15.80;1.00;;;;;;5068375;28;20474;-74
2023/07/02 05:33:27;;;;;;;15.77;6.00;;;15.80;99.90;;;;;;5068356;28;20836;-74
2023/07/02 05:35:53;;;;;;;16.02;5.80;;;15.90;99.90;;;;;;5036743;28;21188;-73
2023/07/02 05:38:19;;;;;;;16.73;5.60;;;16.00;99.90;;;;;;5050410;28;20415;-74
2023/07/02 05:40:45;;;;;;;12.77;5.38;;;16.00;99.90;;;;;;5068406;28;20462;-74
2023/07/02 05:43:11;;;;;;;17.25;5.93;;;16.10;99.90;;;;;;5047265;28;20428;-74
2023/07/02 05:45:37;;;;;;;19.63;5.87;;;16.30;99.90;;;;;;5065864;28;20415;-74
2023/07/02 05:48:03;;;;;;;17.95;5.47;;;16.40;99.90;;;;;;5068074;28;20804;-73
2023/07/02 05:50:28;;;;;;;17.27;5.20;;;16.60;99.90;;;;;;5033842;28;20396;-74
2023/07/02 05:52:54;;;;;;;14.18;4.65;;;16.60;99.90;;;;;;5033614;28;20402;-73
2023/07/02 05:55:20;;;;;;;15.33;5.07;;;16.60;99.90;;;;;;5068152;28;20408;-74
2023/07/02 05:57:46;;;;;;;13.43;4.75;;;16.50;99.90;;;;;;5038693;28;20464;-74
2023/07/02 06:00:12;;;;;;;13.38;4.72;;;16.40;99.90;;;;;;5044602;28;20958;-74
2023/07/02 06:02:38;;;;;;;12.48;4.57;;;16.40;99.90;;;;;;5059398;28;20407;-73
2023/07/02 06:05:04;;;;;;;15.33;4.67;;;16.40;99.90;;;;;;5048848;28;20769;-74
2023/07/02 06:07:29;;;;;;;15.87;4.40;;;16.50;99.90;;;;;;5047087;28;20479;-74
2023/07/02 06:09:55;;;;;;;14.05;4.53;;;16.50;99.90;;;;;;5047333;28;20905;-73
2023/07/02 06:12:22;;;;;;;13.97;4.47;;;16.60;1.00;;;;;;5032003;28;20415;-73
2023/07/02 06:14:47;;;;;;;18.75;4.70;;;16.60;99.90;;;;;;5047065;28;20410;-74
2023/07/02 06:17:13;;;;;;;14.55;4.63;;;16.60;99.90;;;;;;5043174;28;20564;-74
2023/07/02 06:19:39;;;;;;;14.07;4.27;;;16.60;1.00;;;;;;5047518;28;20412;-74
2023/07/02 06:22:04;;;;;;;11.70;4.10;;;16.70;99.90;;;;;;5047185;28;20413;-73
2023/07/02 06:24:31;;;;;;;14.13;4.17;;;16.70;1.00;;;;;;5044304;28;20421;-73
2023/07/02 06:26:56;;;;;;;17.25;5.13;;;16.70;1.00;;;;;;5047581;28;20405;-73
2023/07/02 06:29:25;;;;;;;16.38;4.55;;;16.80;79.80;;;;;;5047084;28;20405;-73
2023/07/02 06:31:51;;;;;;;15.60;5.20;;;16.80;99.90;;;;;;5047626;28;20468;-74
2023/07/02 06:34:16;;;;;;;15.57;5.15;;;16.90;1.00;;;;;;5043585;28;20421;-74
2023/07/02 06:36:43;;;;;;;12.48;4.53;;;16.90;1.00;;;;;;5047833;28;20916;-74
2023/07/02 06:39:11;;;;;;;15.50;4.53;;;17.00;99.90;;;;;;5047300;28;20413;-74
2023/07/02 06:41:37;;;;;;;14.48;4.53;;;17.00;99.90;;;;;;5046786;28;20401;-74
2023/07/02 06:44:04;;;;;;;11.63;4.25;;;17.00;99.90;;;;;;5047219;28;20397;-73
2023/07/02 06:46:29;;;;;;;13.75;4.85;;;17.00;99.90;;;;;;5047276;28;20401;-74
2023/07/02 06:48:55;;;;;;;11.60;3.92;;;17.10;99.90;;;;;;5048679;28;20420;-74
2023/07/02 06:51:21;;;;;;;15.18;4.25;;;17.20;84.10;;;;;;5031785;28;20419;-74
2023/07/02 06:53:48;;;;;;;12.20;4.17;;;17.40;99.90;;;;;;5050341;28;20405;-74
2023/07/02 06:56:14;;;;;;;12.37;3.80;;;17.40;99.90;;;;;;5050617;28;20440;-74
2023/07/02 06:58:41;;;;;;;13.25;4.22;;;17.40;25.20;;;;;;5051134;28;20408;-74
2023/07/02 07:01:07;;;;;;;14.55;4.40;;;17.50;94.70;;;;;;5051316;28;20408;-74
2023/07/02 07:03:34;;;;;;;12.65;4.28;;;17.60;7.00;;;;;;5050803;28;20413;-74
2023/07/02 07:06:00;;;;;;;11.68;4.43;;;17.70;1.00;;;;;;5048893;28;20450;-74
2023/07/02 07:08:25;;;;;;;13.10;4.03;;;17.70;1.00;;;;;;5045395;28;20439;-74
2023/07/02 07:10:51;;;;;;;13.10;4.18;;;17.70;99.90;;;;;;5036388;28;20566;-74
2023/07/02 07:13:16;;;;;;;12.57;3.83;;;17.50;99.90;;;;;;5070148;28;20419;-74
2023/07/02 07:15:42;;;;;;;11.50;3.70;;;17.30;99.90;;;;;;5039389;28;20414;-74
2023/07/02 07:18:09;;;;;;;13.80;3.67;;;17.10;99.90;;;;;;5048975;28;20401;-74
2023/07/02 07:20:35;;;;;;;11.95;3.60;;;17.00;99.90;;;;;;5048476;28;20411;-74
2023/07/02 07:23:03;;;;;;;13.20;3.80;;;17.10;1.00;;;;;;5049268;28;20439;-74
2023/07/02 07:25:28;;;;;;;13.65;3.50;;;17.20;1.00;;;;;;5047670;28;20498;-74
2023/07/02 07:27:54;;;;;;;13.03;3.03;;;17.40;99.90;;;;;;5070698;28;20822;-74
2023/07/02 07:30:23;;;;;;;13.13;2.90;;;17.40;99.90;;;;;;5049579;28;20411;-74
2023/07/02 07:32:53;;;;;;;10.40;3.05;;;17.50;99.90;;;;;;5048019;28;20464;-73
2023/07/02 07:35:21;;;;;;;8.93;2.70;;;17.60;36.10;;;;;;5046396;28;20739;-74
2023/07/02 07:37:47;;;;;;;13.85;3.25;;;17.60;36.90;;;;;;5052294;28;20952;-74
2023/07/02 07:40:13;;;;;;;9.80;2.78;;;17.60;2.00;;;;;;5051196;28;20415;-73
2023/07/02 07:42:38;;;;;;;12.63;2.97;;;17.60;1.00;;;;;;5052232;28;20411;-74
2023/07/02 07:45:05;;;;;;;13.10;3.15;;;17.60;1.00;;;;;;5049102;28;20416;-68
2023/07/02 07:47:30;;;;;;;10.32;2.80;;;17.70;1.00;;;;;;5069818;28;20400;-70
2023/07/02 07:49:56;;;;;;;10.93;3.03;;;17.80;1.00;;;;;;5066781;28;20777;-70
2023/07/02 07:52:21;;;;;;;10.40;2.75;;;17.80;1.00;;;;;;5061917;28;20434;-72
2023/07/02 07:54:47;;;;;;;9.98;2.65;;;17.90;1.00;;;;;;5065320;28;20829;-73
2023/07/02 07:57:13;;;;;;;8.52;2.70;;;18.00;1.00;;;;;;5069658;28;20431;-73
2023/07/02 07:59:39;;;;;;;12.17;2.43;;;18.10;1.00;;;;;;5049724;28;20725;-69
2023/07/02 08:02:05;;;;;;;8.65;2.28;;;18.10;99.90;;;;;;5070065;28;20426;-70
2023/07/02 08:04:30;;;;;;;10.73;2.42;;;18.20;99.90;;;;;;5069786;28;20828;-72
2023/07/02 08:06:56;;;;;;;9.63;2.60;;;18.20;99.90;;;;;;5048435;28;20421;-73
2023/07/02 08:09:23;;;;;;;8.40;1.80;;;18.30;99.90;;;;;;5041403;28;20426;-69
2023/07/02 08:11:49;;;;;;;8.60;1.75;;;18.40;99.90;;;;;;5065649;28;20757;-70
2023/07/02 08:14:15;;;;;;;8.93;2.13;;;18.50;99.90;;;;;;5064116;28;20404;-71
2023/07/02 08:16:41;;;;;;;7.47;2.10;;;18.40;99.90;;;;;;5044311;28;21058;-74
2023/07/02 08:19:07;;;;;;;8.60;1.95;;;18.30;99.90;;;;;;5026350;28;20462;-72
2023/07/02 08:21:32;;;;;;;9.07;2.00;;;18.20;99.90;;;;;;5065286;28;20400;-73
2023/07/02 08:23:58;;;;;;;7.38;1.95;;;18.20;99.90;;;;;;5047413;28;20404;-73
2023/07/02 08:26:24;;;;;;;10.70;2.27;;;18.20;99.90;;;;;;5049051;28;20426;-73
2023/07/02 08:28:49;;;;;;;6.50;2.08;;;18.30;99.90;;;;;;5046056;28;20787;-73
2023/07/02 08:31:16;;;;;;;9.38;2.38;;;18.50;99.90;;;;;;5041806;28;20408;-74
2023/07/02 08:33:41;;;;;;;11.55;2.40;;;18.70;99.90;;;;;;5049589;28;20419;-74
2023/07/02 08:36:07;;;;;;;9.47;2.20;;;18.90;99.90;;;;;;5045884;28;20420;-74
2023/07/02 08:38:33;;;;;;;10.02;2.10;;;19.00;99.90;;;;;;5050189;28;21127;-71
2023/07/02 08:40:58;;;;;;;7.67;2.40;;;19.00;99.90;;;;;;5069173;28;20407;-73
2023/07/02 08:43:26;;;;;;;8.23;2.00;;;18.90;99.90;;;;;;5034155;28;20894;-75
2023/07/02 08:45:53;;;;;;;7.72;2.22;;;18.70;99.90;;;;;;5040805;28;20518;-75
2023/07/02 08:48:22;;;;;;;9.23;2.30;;;18.60;99.90;;;;;;5033204;28;20915;-75
2023/07/02 08:50:49;;;;;;;8.50;1.97;;;18.40;99.90;;;;;;5035261;28;20485;-75
2023/07/02 08:53:15;;;;;;;8.27;2.42;;;18.30;99.90;;;;;;5049872;28;20460;-75
2023/07/02 08:55:41;;;;;;;10.05;2.53;;;18.20;99.90;;;;;;5046086;28;20408;-75
2023/07/02 08:58:06;;;;;;;8.85;2.28;;;18.10;99.90;;;;;;5049313;28;20427;-75
2023/07/02 09:00:36;;;;;;;9.30;3.00;;;18.10;99.90;;;;;;5041047;28;20409;-74
2023/07/02 09:03:18;;;;;;;8.82;2.67;;;18.10;99.90;;;;;;5036836;28;20962;-75
2023/07/02 09:05:49;;;;;;;12.10;3.03;;;18.10;99.90;;;;;;5045068;28;20432;-74
2023/07/02 09:08:24;;;;;;;8.45;2.55;;;18.20;99.90;;;;;;5065704;28;20414;-75
2023/07/02 09:10:49;;;;;;;12.40;3.35;;;18.30;99.90;;;;;;5038927;28;20413;-74
2023/07/02 09:13:16;;;;;;;9.63;2.73;;;18.50;99.90;;;;;;5066064;28;20441;-74
2023/07/02 09:15:42;;;;;;;8.57;2.28;;;18.60;99.90;;;;;;5068321;28;20404;-75
2023/07/02 09:18:21;;;;;;;8.70;1.97;;;18.80;99.90;;;;;;5066914;28;20456;-75
2023/07/02 09:20:51;;;;;;;8.57;2.45;;;19.00;99.90;;;;;;5045779;28;20425;-75
2023/07/02 09:23:16;;;;;;;10.82;2.45;;;19.10;99.90;;;;;;5056696;28;20405;-75
2023/07/02 09:25:42;;;;;;;8.53;2.43;;;19.30;99.90;;;;;;5064135;28;20420;-75
2023/07/02 09:28:19;;;;;;;8.35;2.28;;;19.40;99.90;;;;;;5034056;28;20453;-74
2023/07/02 09:30:53;;;;;;;9.23;2.17;;;19.60;99.90;;;;;;5048877;28;20415;-75
2023/07/02 09:33:19;;;;;;;9.50;2.17;;;19.60;99.90;;;;;;5066711;28;20420;-75
2023/07/02 09:35:44;;;;;;;8.30;2.00;;;19.50;99.90;;;;;;5064615;28;20448;-75
2023/07/02 09:38:12;;;;;;;7.53;1.87;;;19.40;99.90;;;;;;5064696;28;20912;-75
2023/07/02 09:40:47;;;;;;;10.25;2.17;;;19.60;99.90;;;;;;5049919;28;20924;-75
2023/07/02 09:43:17;;;;;;;9.20;1.97;;;19.90;99.90;;;;;;5062940;28;20479;-75
2023/07/02 09:45:47;;;;;;;6.78;1.42;;;20.20;99.90;;;;;;5044387;28;20417;-75
2023/07/02 09:48:17;;;;;;;4.25;1.20;;;20.40;99.90;;;;;;5054840;28;20433;-75
2023/07/02 09:50:44;;;;;;;7.50;1.42;;;20.50;99.90;;;;;;5057499;28;20592;-74
2023/07/02 09:53:11;;;;;;;5.10;1.40;;;20.40;99.90;;;;;;5064825;28;20400;-74
2023/07/02 09:55:39;;;;;;;5.65;1.40;;;20.20;99.90;;;;;;5045240;28;20423;-74
2023/07/02 09:58:05;;;;;;;7.20;1.80;;;20.30;99.90;;;;;;5036404;28;20444;-74
2023/07/02 10:00:31;;;;;;;6.30;1.48;;;20.50;99.90;;;;;;5059848;28;20446;-74
2023/07/02 10:02:56;;;;;;;7.18;1.70;;;20.80;99.90;;;;;;5066859;28;20855;-74
2023/07/02 10:05:27;;;;;;;6.63;1.58;;;20.90;99.90;;;;;;5067264;28;20411;-71
2023/07/02 10:07:53;;;;;;;8.63;2.05;;;21.00;99.90;;;;;;5059318;28;20439;-72
2023/07/02 10:10:31;;;;;;;7.10;1.63;;;21.20;99.90;;;;;;5039606;28;20417;-73
2023/07/02 10:12:57;;;;;;;7.47;1.67;;;21.30;99.90;;;;;;5043946;28;20421;-74
2023/07/02 10:15:31;;;;;;;6.10;1.30;;;21.30;99.90;;;;;;5046527;28;20414;-74
2023/07/02 10:18:02;;;;;;;7.68;1.42;;;21.60;99.90;;;;;;5048219;28;20435;-74
2023/07/02 10:20:39;;;;;;;7.80;1.50;;;21.90;99.90;;;;;;5065721;28;20411;-74
2023/07/02 10:23:07;;;;;;;6.95;1.52;;;22.10;99.90;;;;;;5065205;28;20522;-74
2023/07/02 10:25:38;;;;;;;6.60;1.65;;;22.30;99.90;;;;;;5035555;28;20770;-75
2023/07/02 10:28:26;;;;;;;6.13;1.60;;;22.50;99.90;;;;;;5046629;28;20404;-75
2023/07/02 10:30:53;;;;;;;7.18;1.50;;;22.70;99.90;;;;;;5047339;28;20431;-74
2023/07/02 10:33:19;;;;;;;7.30;1.37;;;22.90;99.90;;;;;;5050663;28;20945;-74
2023/07/02 10:35:49;;;;;;;6.63;1.27;;;23.00;99.90;;;;;;5053229;28;20457;-74
2023/07/02 10:38:22;;;;;;;6.60;1.50;;;23.00;99.90;;;;;;5050009;28;20417;-74
2023/07/02 10:40:55;;;;;;;5.33;1.20;;;23.00;98.90;;;;;;5069265;28;21059;-74
2023/07/02 10:43:25;;;;;;;6.25;1.70;;;22.80;99.90;;;;;;5045326;28;20417;-74
2023/07/02 10:45:51;;;;;;;6.38;1.20;;;22.70;96.70;;;;;;5065496;28;20396;-74
2023/07/02 10:48:16;;;;;;;4.53;1.10;;;22.90;96.70;;;;;;5049993;28;20472;-75
2023/07/02 10:50:42;;;;;;;6.40;1.08;;;23.00;94.40;;;;;;5052389;28;20457;-75
2023/07/02 10:53:15;;;;;;;5.37;1.10;;;22.80;93.00;;;;;;5053237;28;20414;-74
2023/07/02 10:55:41;;;;;;;6.85;1.10;;;22.80;91.50;;;;;;5044365;28;20445;-74
2023/07/02 10:58:08;;;;;;;5.70;1.40;;;22.80;93.50;;;;;;5066366;28;20403;-74
2023/07/02 11:00:47;;;;;;;8.10;1.60;;;23.00;93.50;;;;;;5062153;28;20504;-74
2023/07/02 11:03:24;;;;;;;7.05;1.45;;;23.10;93.60;;;;;;5070802;28;20439;-74
2023/07/02 11:05:51;;;;;;;6.13;1.73;;;23.40;92.00;;;;;;5070934;28;20407;-74
2023/07/02 11:08:18;;;;;;;6.60;1.90;;;23.40;92.20;;;;;;5071057;28;20403;-75
2023/07/02 11:10:44;;;;;;;7.38;1.67;;;23.50;92.90;;;;;;5042552;28;20409;-75
2023/07/02 11:13:20;;;;;;;8.63;2.00;;;23.50;92.80;;;;;;5067741;28;20773;-75
2023/07/02 11:15:46;;;;;;;7.03;1.30;;;23.40;91.80;;;;;;5052583;28;20415;-75
2023/07/02 11:18:16;;;;;;;7.72;1.70;;;23.10;90.10;;;;;;5049393;28;20412;-74
2023/07/02 11:20:45;;;;;;;6.43;1.33;;;22.90;88.70;;;;;;5044788;28;20412;-74
2023/07/02 11:23:24;;;;;;;6.60;1.63;;;22.70;86.60;;;;;;5045173;28;20458;-74
2023/07/02 11:26:01;;;;;;;7.60;1.70;;;22.60;87.70;;;;;;5035182;28;20439;-74
2023/07/02 11:28:28;;;;;;;6.22;1.52;;;22.90;89.20;;;;;;5070652;28;20423;-74
2023/07/02 11:30:54;;;;;;;5.90;1.52;;;23.10;88.60;;;;;;5070526;28;20399;-74
2023/07/02 11:33:40;;;;;;;5.53;1.85;;;23.40;88.80;;;;;;5050006;28;20493;-75
2023/07/02 11:36:07;;;;;;;6.32;1.50;;;23.60;88.10;;;;;;5042419;28;21152;-74
2023/07/02 11:38:35;;;;;;;6.43;1.42;;;23.80;94.70;;;;;;5052517;28;20408;-74
2023/07/02 11:41:03;;;;;;;7.28;1.25;;;23.50;82.90;;;;;;5043465;28;20414;-74
2023/07/02 11:43:29;;;;;;;6.27;1.40;;;23.10;80.30;;;;;;5049693;28;20426;-75
2023/07/02 11:45:54;;;;;;;7.45;1.63;;;23.20;81.60;;;;;;5049310;28;20412;-74
2023/07/02 11:48:20;;;;;;;5.63;1.40;;;23.30;81.90;;;;;;5050083;28;20901;-75
2023/07/02 11:50:45;;;;;;;5.70;1.30;;;23.40;83.80;;;;;;5042409;28;20409;-74
2023/07/02 11:53:11;;;;;;;5.45;1.17;;;23.70;92.60;;;;;;5055278;28;20404;-74
2023/07/02 11:55:37;;;;;;;5.03;1.50;;;23.60;80.90;;;;;;5048839;28;20420;-74
2023/07/02 11:58:02;;;;;;;4.87;1.23;;;23.20;77.40;;;;;;5048769;28;20432;-74
2023/07/02 12:00:28;;;;;;;5.68;1.38;;;22.80;77.40;;;;;;5067952;28;20487;-75
2023/07/02 12:02:54;;;;;;;6.70;1.20;;;22.60;75.40;;;;;;5050018;28;20407;-74
2023/07/02 12:05:19;;;;;;;8.17;1.90;;;22.40;75.10;;;;;;5044126;28;20413;-75
2023/07/02 12:07:45;;;;;;;7.32;1.58;;;22.50;74.50;;;;;;5066092;28;20479;-75
2023/07/02 12:10:11;;;;;;;6.47;1.30;;;22.50;75.10;;;;;;5045960;28;20417;-75
2023/07/02 12:12:36;;;;;;;5.13;1.50;;;22.40;75.40;;;;;;5039227;28;20543;-74
2023/07/02 12:15:02;;;;;;;5.60;1.40;;;22.30;75.10;;;;;;5048588;28;20500;-75
2023/07/02 12:17:28;;;;;;;8.30;1.97;;;22.30;75.50;;;;;;5044949;28;20444;-75
2023/07/02 12:19:53;;;;;;;5.43;1.80;;;22.40;75.70;;;;;;5047810;28;20763;-74
2023/07/02 12:22:21;;;;;;;6.77;1.60;;;22.30;75.10;;;;;;5066052;28;20411;-75
2023/07/02 12:24:48;;;;;;;8.10;2.05;;;22.30;76.70;;;;;;5044301;28;20416;-74
2023/07/02 12:27:14;;;;;;;6.40;1.53;;;22.40;75.70;;;;;;5064812;28;20480;-72
2023/07/02 12:29:39;;;;;;;5.10;1.73;;;22.40;74.70;;;;;;5067757;28;20404;-73
2023/07/02 12:32:05;;;;;;;8.37;1.97;;;22.20;74.60;;;;;;5047320;28;20796;-74
2023/07/02 12:34:32;;;;;;;6.47;1.55;;;22.30;75.50;;;;;;5040276;28;20814;-74
2023/07/02 12:36:57;;;;;;;5.60;1.42;;;22.40;74.90;;;;;;5048009;28;20929;-74
2023/07/02 12:39:23;;;;;;;6.03;1.60;;;22.40;74.70;;;;;;5044085;28;20419;-74
2023/07/02 12:41:48;;;;;;;5.67;1.57;;;22.30;73.90;;;;;;5055569;28;20471;-74